sensor_id;sensor_type;location;lat;lon;timestamp;P1;durP1;ratioP1;P2;durP2;ratioP2
3427;SDS011;1727;42.624;23.406;2023-04-15T00:02:02;9.63;;;4.30;;
3427;SDS011;1727;42.624;23.406;2023-04-15T00:04:41;9.43;;;3.97;;
3427;SDS011;1727;42.624;23.406;2023-04-15T00:07:07;4.60;;;3.00;;
3427;SDS011;1727;42.624;23.406;2023-04-15T00:09:35;4.63;;;3.70;;
3427;SDS011;1727;42.624;23.406;2023-04-15T00:15:23;4.80;;;3.80;;
3427;SDS011;1727;42.624;23.406;2023-04-15T00:17:51;4.73;;;3.30;;
3427;SDS011;1727;42.624;23.406;2023-04-15T00:20:19;5.43;;;3.30;;
3427;SDS011;1727;42.624;23.406;2023-04-15T00:22:46;6.27;;;3.90;;
3427;SDS011;1727;42.624;23.406;2023-04-15T00:25:12;4.80;;;3.63;;
3427;SDS011;1727;42.624;23.406;2023-04-15T00:27:39;5.57;;;4.20;;
3427;SDS011;1727;42.624;23.406;2023-04-15T00:30:06;5.33;;;3.67;;
3427;SDS011;1727;42.624;23.406;2023-04-15T00:32:33;4.30;;;3.73;;
3427;SDS011;1727;42.624;23.406;2023-04-15T00:35:00;8.77;;;4.57;;
3427;SDS011;1727;42.624;23.406;2023-04-15T00:37:29;5.03;;;3.60;;
3427;SDS011;1727;42.624;23.406;2023-04-15T00:39:56;5.00;;;3.67;;
3427;SDS011;1727;42.624;23.406;2023-04-15T00:42:23;4.07;;;3.67;;
3427;SDS011;1727;42.624;23.406;2023-04-15T00:51:06;6.10;;;3.73;;
3427;SDS011;1727;42.624;23.406;2023-04-15T00:53:35;7.07;;;4.60;;
3427;SDS011;1727;42.624;23.406;2023-04-15T00:56:01;6.33;;;4.30;;
3427;SDS011;1727;42.624;23.406;2023-04-15T00:58:28;4.90;;;4.13;;
3427;SDS011;1727;42.624;23.406;2023-04-15T01:00:55;11.40;;;4.00;;
3427;SDS011;1727;42.624;23.406;2023-04-15T01:03:23;3.93;;;3.43;;
3427;SDS011;1727;42.624;23.406;2023-04-15T01:05:49;5.60;;;4.70;;
3427;SDS011;1727;42.624;23.406;2023-04-15T01:08:22;8.30;;;4.00;;
3427;SDS011;1727;42.624;23.406;2023-04-15T01:10:53;5.50;;;4.70;;
3427;SDS011;1727;42.624;23.406;2023-04-15T01:13:21;4.17;;;3.77;;
3427;SDS011;1727;42.624;23.406;2023-04-15T01:15:49;5.03;;;3.30;;
3427;SDS011;1727;42.624;23.406;2023-04-15T01:18:16;3.90;;;3.50;;
3427;SDS011;1727;42.624;23.406;2023-04-15T01:20:43;4.53;;;4.10;;
3427;SDS011;1727;42.624;23.406;2023-04-15T01:23:11;3.50;;;3.20;;
3427;SDS011;1727;42.624;23.406;2023-04-15T01:25:39;7.73;;;4.07;;
3427;SDS011;1727;42.624;23.406;2023-04-15T01:28:10;4.90;;;3.30;;
3427;SDS011;1727;42.624;23.406;2023-04-15T01:30:37;4.73;;;3.50;;
3427;SDS011;1727;42.624;23.406;2023-04-15T01:33:04;3.80;;;3.23;;
3427;SDS011;1727;42.624;23.406;2023-04-15T01:35:31;5.07;;;3.80;;
3427;SDS011;1727;42.624;23.406;2023-04-15T01:37:59;7.40;;;3.83;;
3427;SDS011;1727;42.624;23.406;2023-04-15T01:40:30;6.07;;;4.07;;
3427;SDS011;1727;42.624;23.406;2023-04-15T01:42:59;5.33;;;3.60;;
3427;SDS011;1727;42.624;23.406;2023-04-15T01:45:28;4.40;;;3.93;;
3427;SDS011;1727;42.624;23.406;2023-04-15T01:47:55;4.63;;;3.87;;
3427;SDS011;1727;42.624;23.406;2023-04-15T01:50:22;6.07;;;4.20;;
3427;SDS011;1727;42.624;23.406;2023-04-15T01:52:55;4.20;;;3.53;;
3427;SDS011;1727;42.624;23.406;2023-04-15T01:55:22;5.30;;;3.50;;
3427;SDS011;1727;42.624;23.406;2023-04-15T01:57:49;8.80;;;4.63;;
3427;SDS011;1727;42.624;23.406;2023-04-15T02:00:17;3.70;;;3.30;;
3427;SDS011;1727;42.624;23.406;2023-04-15T02:02:44;3.60;;;3.30;;
3427;SDS011;1727;42.624;23.406;2023-04-15T02:08:33;5.10;;;3.50;;
3427;SDS011;1727;42.624;23.406;2023-04-15T02:11:00;4.63;;;3.23;;
3427;SDS011;1727;42.624;23.406;2023-04-15T02:13:26;4.20;;;3.57;;
3427;SDS011;1727;42.624;23.406;2023-04-15T02:15:55;6.90;;;3.33;;
3427;SDS011;1727;42.624;23.406;2023-04-15T02:18:23;3.70;;;3.30;;
3427;SDS011;1727;42.624;23.406;2023-04-15T02:20:50;4.53;;;3.50;;
3427;SDS011;1727;42.624;23.406;2023-04-15T02:23:17;5.30;;;3.50;;
3427;SDS011;1727;42.624;23.406;2023-04-15T02:25:44;3.53;;;3.17;;
3427;SDS011;1727;42.624;23.406;2023-04-15T02:28:11;4.17;;;3.60;;
3427;SDS011;1727;42.624;23.406;2023-04-15T02:30:38;4.20;;;3.77;;
3427;SDS011;1727;42.624;23.406;2023-04-15T02:33:07;4.40;;;3.53;;
3427;SDS011;1727;42.624;23.406;2023-04-15T02:35:34;4.47;;;3.47;;
3427;SDS011;1727;42.624;23.406;2023-04-15T02:38:03;4.63;;;3.40;;
3427;SDS011;1727;42.624;23.406;2023-04-15T02:40:32;3.40;;;3.10;;
3427;SDS011;1727;42.624;23.406;2023-04-15T02:42:59;6.30;;;3.80;;
3427;SDS011;1727;42.624;23.406;2023-04-15T02:48:48;3.83;;;3.40;;
3427;SDS011;1727;42.624;23.406;2023-04-15T02:51:18;4.43;;;3.23;;
3427;SDS011;1727;42.624;23.406;2023-04-15T02:53:46;6.03;;;4.40;;
3427;SDS011;1727;42.624;23.406;2023-04-15T02:56:13;5.90;;;5.30;;
3427;SDS011;1727;42.624;23.406;2023-04-15T02:58:42;5.20;;;4.37;;
3427;SDS011;1727;42.624;23.406;2023-04-15T03:01:10;6.57;;;4.83;;
3427;SDS011;1727;42.624;23.406;2023-04-15T03:03:37;6.63;;;4.63;;
3427;SDS011;1727;42.624;23.406;2023-04-15T03:06:05;6.23;;;4.70;;
3427;SDS011;1727;42.624;23.406;2023-04-15T03:08:33;14.93;;;5.83;;
3427;SDS011;1727;42.624;23.406;2023-04-15T03:10:59;7.90;;;5.90;;
3427;SDS011;1727;42.624;23.406;2023-04-15T03:13:26;5.47;;;4.97;;
3427;SDS011;1727;42.624;23.406;2023-04-15T03:15:54;5.60;;;5.10;;
3427;SDS011;1727;42.624;23.406;2023-04-15T03:18:22;5.90;;;5.33;;
3427;SDS011;1727;42.624;23.406;2023-04-15T03:20:50;6.80;;;4.90;;
3427;SDS011;1727;42.624;23.406;2023-04-15T03:23:18;4.83;;;4.33;;
3427;SDS011;1727;42.624;23.406;2023-04-15T03:25:45;6.87;;;5.80;;
3427;SDS011;1727;42.624;23.406;2023-04-15T03:28:12;11.17;;;5.33;;
3427;SDS011;1727;42.624;23.406;2023-04-15T03:30:38;5.37;;;4.33;;
3427;SDS011;1727;42.624;23.406;2023-04-15T03:33:05;8.73;;;5.50;;
3427;SDS011;1727;42.624;23.406;2023-04-15T03:35:35;5.30;;;4.57;;
3427;SDS011;1727;42.624;23.406;2023-04-15T03:38:02;8.43;;;5.10;;
3427;SDS011;1727;42.624;23.406;2023-04-15T03:40:30;10.60;;;4.97;;
3427;SDS011;1727;42.624;23.406;2023-04-15T03:42:57;6.20;;;4.80;;
3427;SDS011;1727;42.624;23.406;2023-04-15T03:45:24;6.50;;;5.47;;
3427;SDS011;1727;42.624;23.406;2023-04-15T03:51:12;7.57;;;4.90;;
3427;SDS011;1727;42.624;23.406;2023-04-15T03:53:39;5.10;;;4.27;;
3427;SDS011;1727;42.624;23.406;2023-04-15T03:56:07;5.30;;;4.00;;
3427;SDS011;1727;42.624;23.406;2023-04-15T03:58:34;6.13;;;4.10;;
3427;SDS011;1727;42.624;23.406;2023-04-15T04:11:07;6.37;;;4.20;;
3427;SDS011;1727;42.624;23.406;2023-04-15T04:13:34;6.80;;;4.57;;
3427;SDS011;1727;42.624;23.406;2023-04-15T04:16:01;5.53;;;5.03;;
3427;SDS011;1727;42.624;23.406;2023-04-15T04:18:28;5.93;;;4.20;;
3427;SDS011;1727;42.624;23.406;2023-04-15T04:20:55;6.47;;;5.17;;
3427;SDS011;1727;42.624;23.406;2023-04-15T04:23:22;5.50;;;4.17;;
3427;SDS011;1727;42.624;23.406;2023-04-15T04:25:49;4.33;;;3.93;;
3427;SDS011;1727;42.624;23.406;2023-04-15T04:28:17;6.43;;;4.80;;
3427;SDS011;1727;42.624;23.406;2023-04-15T04:30:44;8.57;;;4.80;;
3427;SDS011;1727;42.624;23.406;2023-04-15T04:33:10;5.40;;;4.03;;
3427;SDS011;1727;42.624;23.406;2023-04-15T04:35:37;5.30;;;3.67;;
3427;SDS011;1727;42.624;23.406;2023-04-15T04:38:04;4.13;;;3.30;;
3427;SDS011;1727;42.624;23.406;2023-04-15T04:40:31;7.10;;;3.30;;
3427;SDS011;1727;42.624;23.406;2023-04-15T04:42:58;4.10;;;3.70;;
3427;SDS011;1727;42.624;23.406;2023-04-15T04:45:26;9.07;;;3.70;;
3427;SDS011;1727;42.624;23.406;2023-04-15T04:47:53;4.50;;;4.10;;
3427;SDS011;1727;42.624;23.406;2023-04-15T04:50:20;5.87;;;3.90;;
3427;SDS011;1727;42.624;23.406;2023-04-15T04:52:47;5.30;;;3.90;;
3427;SDS011;1727;42.624;23.406;2023-04-15T04:55:13;8.47;;;4.63;;
3427;SDS011;1727;42.624;23.406;2023-04-15T04:57:40;7.10;;;4.10;;
3427;SDS011;1727;42.624;23.406;2023-04-15T05:00:07;5.40;;;4.80;;
3427;SDS011;1727;42.624;23.406;2023-04-15T05:02:36;7.60;;;5.27;;
3427;SDS011;1727;42.624;23.406;2023-04-15T05:05:04;5.20;;;4.60;;
3427;SDS011;1727;42.624;23.406;2023-04-15T05:07:31;9.90;;;5.00;;
3427;SDS011;1727;42.624;23.406;2023-04-15T05:09:58;7.40;;;4.23;;
3427;SDS011;1727;42.624;23.406;2023-04-15T05:12:25;6.03;;;4.90;;
3427;SDS011;1727;42.624;23.406;2023-04-15T05:14:52;5.63;;;5.10;;
3427;SDS011;1727;42.624;23.406;2023-04-15T05:17:19;7.23;;;5.13;;
3427;SDS011;1727;42.624;23.406;2023-04-15T05:19:47;7.37;;;5.53;;
3427;SDS011;1727;42.624;23.406;2023-04-15T05:22:14;8.70;;;5.87;;
3427;SDS011;1727;42.624;23.406;2023-04-15T05:24:41;25.47;;;8.33;;
3427;SDS011;1727;42.624;23.406;2023-04-15T05:27:07;16.70;;;11.07;;
3427;SDS011;1727;42.624;23.406;2023-04-15T05:29:35;11.20;;;7.30;;
3427;SDS011;1727;42.624;23.406;2023-04-15T05:32:02;14.47;;;6.70;;
3427;SDS011;1727;42.624;23.406;2023-04-15T05:34:29;6.90;;;6.20;;
3427;SDS011;1727;42.624;23.406;2023-04-15T05:36:57;7.17;;;6.20;;
3427;SDS011;1727;42.624;23.406;2023-04-15T05:39:24;7.50;;;6.30;;
3427;SDS011;1727;42.624;23.406;2023-04-15T05:41:51;7.97;;;6.03;;
3427;SDS011;1727;42.624;23.406;2023-04-15T05:44:18;8.07;;;5.33;;
3427;SDS011;1727;42.624;23.406;2023-04-15T05:46:45;12.90;;;6.90;;
3427;SDS011;1727;42.624;23.406;2023-04-15T05:49:12;8.60;;;7.83;;
3427;SDS011;1727;42.624;23.406;2023-04-15T05:51:38;6.53;;;5.00;;
3427;SDS011;1727;42.624;23.406;2023-04-15T05:54:07;8.50;;;7.50;;
3427;SDS011;1727;42.624;23.406;2023-04-15T05:56:33;18.23;;;8.07;;
3427;SDS011;1727;42.624;23.406;2023-04-15T05:59:01;7.40;;;6.70;;
3427;SDS011;1727;42.624;23.406;2023-04-15T06:01:28;7.37;;;6.57;;
3427;SDS011;1727;42.624;23.406;2023-04-15T06:03:54;6.20;;;5.60;;
3427;SDS011;1727;42.624;23.406;2023-04-15T06:06:21;10.23;;;6.10;;
3427;SDS011;1727;42.624;23.406;2023-04-15T06:08:48;7.50;;;4.80;;
3427;SDS011;1727;42.624;23.406;2023-04-15T06:11:16;4.83;;;4.33;;
3427;SDS011;1727;42.624;23.406;2023-04-15T06:13:43;6.77;;;6.00;;
3427;SDS011;1727;42.624;23.406;2023-04-15T06:16:10;7.00;;;5.27;;
3427;SDS011;1727;42.624;23.406;2023-04-15T06:18:37;6.43;;;4.87;;
3427;SDS011;1727;42.624;23.406;2023-04-15T06:21:04;7.30;;;5.57;;
3427;SDS011;1727;42.624;23.406;2023-04-15T06:23:33;5.80;;;5.30;;
3427;SDS011;1727;42.624;23.406;2023-04-15T06:26:00;5.73;;;4.00;;
3427;SDS011;1727;42.624;23.406;2023-04-15T06:28:28;6.17;;;4.23;;
3427;SDS011;1727;42.624;23.406;2023-04-15T06:30:55;5.07;;;4.27;;
3427;SDS011;1727;42.624;23.406;2023-04-15T06:33:22;5.00;;;3.20;;
3427;SDS011;1727;42.624;23.406;2023-04-15T06:35:49;4.70;;;3.60;;
3427;SDS011;1727;42.624;23.406;2023-04-15T06:38:15;5.50;;;3.20;;
3427;SDS011;1727;42.624;23.406;2023-04-15T06:40:42;4.07;;;3.17;;
3427;SDS011;1727;42.624;23.406;2023-04-15T06:43:09;7.53;;;3.40;;
3427;SDS011;1727;42.624;23.406;2023-04-15T06:45:37;4.80;;;3.53;;
3427;SDS011;1727;42.624;23.406;2023-04-15T06:48:04;9.73;;;4.20;;
3427;SDS011;1727;42.624;23.406;2023-04-15T06:50:31;6.07;;;3.67;;
3427;SDS011;1727;42.624;23.406;2023-04-15T06:52:59;6.63;;;3.40;;
3427;SDS011;1727;42.624;23.406;2023-04-15T06:55:27;4.80;;;3.63;;
3427;SDS011;1727;42.624;23.406;2023-04-15T06:57:53;7.10;;;3.60;;
3427;SDS011;1727;42.624;23.406;2023-04-15T07:00:20;7.23;;;3.53;;
3427;SDS011;1727;42.624;23.406;2023-04-15T07:02:49;4.57;;;3.80;;
3427;SDS011;1727;42.624;23.406;2023-04-15T07:05:19;6.80;;;3.53;;
3427;SDS011;1727;42.624;23.406;2023-04-15T07:07:46;8.13;;;3.90;;
3427;SDS011;1727;42.624;23.406;2023-04-15T07:10:13;8.63;;;4.20;;
3427;SDS011;1727;42.624;23.406;2023-04-15T07:12:40;4.33;;;3.23;;
3427;SDS011;1727;42.624;23.406;2023-04-15T07:15:07;5.03;;;4.23;;
3427;SDS011;1727;42.624;23.406;2023-04-15T07:17:34;8.80;;;4.37;;
3427;SDS011;1727;42.624;23.406;2023-04-15T07:20:02;5.23;;;3.50;;
3427;SDS011;1727;42.624;23.406;2023-04-15T07:22:30;5.37;;;4.03;;
3427;SDS011;1727;42.624;23.406;2023-04-15T07:25:00;6.43;;;5.23;;
3427;SDS011;1727;42.624;23.406;2023-04-15T07:27:27;8.83;;;4.90;;
3427;SDS011;1727;42.624;23.406;2023-04-15T07:29:55;11.10;;;6.03;;
3427;SDS011;1727;42.624;23.406;2023-04-15T07:32:22;6.00;;;4.23;;
3427;SDS011;1727;42.624;23.406;2023-04-15T07:34:49;7.97;;;4.83;;
3427;SDS011;1727;42.624;23.406;2023-04-15T07:37:17;6.30;;;4.80;;
3427;SDS011;1727;42.624;23.406;2023-04-15T07:39:44;6.27;;;3.73;;
3427;SDS011;1727;42.624;23.406;2023-04-15T07:42:11;8.40;;;4.60;;
3427;SDS011;1727;42.624;23.406;2023-04-15T07:44:38;6.50;;;3.53;;
3427;SDS011;1727;42.624;23.406;2023-04-15T07:47:05;10.73;;;3.90;;
3427;SDS011;1727;42.624;23.406;2023-04-15T07:49:32;11.13;;;4.10;;
3427;SDS011;1727;42.624;23.406;2023-04-15T07:51:58;5.60;;;3.10;;
3427;SDS011;1727;42.624;23.406;2023-04-15T07:54:29;6.30;;;3.50;;
3427;SDS011;1727;42.624;23.406;2023-04-15T07:56:56;7.20;;;3.60;;
3427;SDS011;1727;42.624;23.406;2023-04-15T07:59:23;3.20;;;2.90;;
3427;SDS011;1727;42.624;23.406;2023-04-15T08:01:51;3.90;;;3.43;;
3427;SDS011;1727;42.624;23.406;2023-04-15T08:04:18;5.90;;;3.50;;
3427;SDS011;1727;42.624;23.406;2023-04-15T08:06:46;5.80;;;4.20;;
3427;SDS011;1727;42.624;23.406;2023-04-15T08:09:14;4.17;;;3.40;;
3427;SDS011;1727;42.624;23.406;2023-04-15T08:11:42;8.93;;;3.80;;
3427;SDS011;1727;42.624;23.406;2023-04-15T08:14:09;6.37;;;3.77;;
3427;SDS011;1727;42.624;23.406;2023-04-15T08:23:19;4.50;;;2.80;;
3427;SDS011;1727;42.624;23.406;2023-04-15T08:25:46;9.40;;;4.40;;
3427;SDS011;1727;42.624;23.406;2023-04-15T08:28:14;5.57;;;3.40;;
3427;SDS011;1727;42.624;23.406;2023-04-15T08:30:42;3.40;;;2.70;;
3427;SDS011;1727;42.624;23.406;2023-04-15T08:33:08;5.93;;;3.43;;
3427;SDS011;1727;42.624;23.406;2023-04-15T08:35:35;5.70;;;3.97;;
3427;SDS011;1727;42.624;23.406;2023-04-15T08:38:02;3.50;;;3.03;;
3427;SDS011;1727;42.624;23.406;2023-04-15T08:40:30;4.73;;;4.00;;
3427;SDS011;1727;42.624;23.406;2023-04-15T08:43:08;4.03;;;2.97;;
3427;SDS011;1727;42.624;23.406;2023-04-15T08:45:38;3.87;;;3.57;;
3427;SDS011;1727;42.624;23.406;2023-04-15T08:48:05;6.30;;;3.13;;
3427;SDS011;1727;42.624;23.406;2023-04-15T08:50:35;5.80;;;3.60;;
3427;SDS011;1727;42.624;23.406;2023-04-15T08:53:04;4.53;;;3.20;;
3427;SDS011;1727;42.624;23.406;2023-04-15T08:55:32;3.70;;;3.33;;
3427;SDS011;1727;42.624;23.406;2023-04-15T08:58:01;6.93;;;2.83;;
3427;SDS011;1727;42.624;23.406;2023-04-15T09:00:28;5.97;;;2.70;;
3427;SDS011;1727;42.624;23.406;2023-04-15T09:02:57;4.60;;;2.47;;
3427;SDS011;1727;42.624;23.406;2023-04-15T09:05:25;5.53;;;3.17;;
3427;SDS011;1727;42.624;23.406;2023-04-15T09:07:51;4.57;;;2.77;;
3427;SDS011;1727;42.624;23.406;2023-04-15T09:10:18;3.83;;;2.77;;
3427;SDS011;1727;42.624;23.406;2023-04-15T09:12:45;3.57;;;2.30;;
3427;SDS011;1727;42.624;23.406;2023-04-15T09:22:19;3.87;;;2.27;;
3427;SDS011;1727;42.624;23.406;2023-04-15T09:24:46;8.10;;;2.30;;
3427;SDS011;1727;42.624;23.406;2023-04-15T09:27:15;3.77;;;2.97;;
3427;SDS011;1727;42.624;23.406;2023-04-15T09:29:42;4.70;;;2.80;;
3427;SDS011;1727;42.624;23.406;2023-04-15T09:32:09;2.93;;;2.23;;
3427;SDS011;1727;42.624;23.406;2023-04-15T09:34:43;3.90;;;2.33;;
3427;SDS011;1727;42.624;23.406;2023-04-15T09:37:10;2.53;;;2.23;;
3427;SDS011;1727;42.624;23.406;2023-04-15T09:39:45;2.97;;;2.60;;
3427;SDS011;1727;42.624;23.406;2023-04-15T09:42:14;2.07;;;1.90;;
3427;SDS011;1727;42.624;23.406;2023-04-15T09:44:41;2.40;;;2.20;;
3427;SDS011;1727;42.624;23.406;2023-04-15T09:47:08;5.37;;;2.00;;
3427;SDS011;1727;42.624;23.406;2023-04-15T09:49:35;2.40;;;2.20;;
3427;SDS011;1727;42.624;23.406;2023-04-15T09:52:02;3.20;;;2.30;;
3427;SDS011;1727;42.624;23.406;2023-04-15T09:54:33;5.40;;;2.23;;
3427;SDS011;1727;42.624;23.406;2023-04-15T09:57:05;3.60;;;2.07;;
3427;SDS011;1727;42.624;23.406;2023-04-15T09:59:33;2.30;;;2.10;;
3427;SDS011;1727;42.624;23.406;2023-04-15T10:02:01;5.77;;;2.80;;
3427;SDS011;1727;42.624;23.406;2023-04-15T10:04:31;7.23;;;2.40;;
3427;SDS011;1727;42.624;23.406;2023-04-15T10:07:01;3.03;;;2.63;;
3427;SDS011;1727;42.624;23.406;2023-04-15T10:09:30;4.20;;;2.73;;
3427;SDS011;1727;42.624;23.406;2023-04-15T10:11:57;2.90;;;2.53;;
3427;SDS011;1727;42.624;23.406;2023-04-15T10:14:26;2.77;;;2.33;;
3427;SDS011;1727;42.624;23.406;2023-04-15T10:16:55;2.27;;;2.10;;
3427;SDS011;1727;42.624;23.406;2023-04-15T10:19:23;3.50;;;2.07;;
3427;SDS011;1727;42.624;23.406;2023-04-15T10:21:52;3.38;;;2.40;;
3427;SDS011;1727;42.624;23.406;2023-04-15T10:24:20;2.47;;;2.27;;
3427;SDS011;1727;42.624;23.406;2023-04-15T10:26:48;4.60;;;2.40;;
3427;SDS011;1727;42.624;23.406;2023-04-15T10:29:16;3.80;;;2.30;;
3427;SDS011;1727;42.624;23.406;2023-04-15T10:31:45;2.53;;;1.83;;
3427;SDS011;1727;42.624;23.406;2023-04-15T10:34:12;5.23;;;2.53;;
3427;SDS011;1727;42.624;23.406;2023-04-15T10:36:40;4.33;;;2.00;;
3427;SDS011;1727;42.624;23.406;2023-04-15T10:42:05;6.13;;;2.10;;
3427;SDS011;1727;42.624;23.406;2023-04-15T10:44:32;5.03;;;2.40;;
3427;SDS011;1727;42.624;23.406;2023-04-15T10:47:03;6.87;;;2.47;;
3427;SDS011;1727;42.624;23.406;2023-04-15T10:49:34;7.83;;;2.03;;
3427;SDS011;1727;42.624;23.406;2023-04-15T10:52:09;3.87;;;2.23;;
3427;SDS011;1727;42.624;23.406;2023-04-15T10:57:58;4.70;;;2.20;;
3427;SDS011;1727;42.624;23.406;2023-04-15T11:00:27;2.33;;;1.80;;
3427;SDS011;1727;42.624;23.406;2023-04-15T11:03:04;3.80;;;2.03;;
3427;SDS011;1727;42.624;23.406;2023-04-15T11:05:48;2.30;;;2.10;;
3427;SDS011;1727;42.624;23.406;2023-04-15T11:08:16;3.53;;;1.97;;
3427;SDS011;1727;42.624;23.406;2023-04-15T11:10:52;5.30;;;2.40;;
3427;SDS011;1727;42.624;23.406;2023-04-15T11:13:22;2.30;;;1.87;;
3427;SDS011;1727;42.624;23.406;2023-04-15T11:15:57;3.00;;;2.10;;
3427;SDS011;1727;42.624;23.406;2023-04-15T11:18:27;4.50;;;1.70;;
3427;SDS011;1727;42.624;23.406;2023-04-15T11:20:56;2.80;;;1.90;;
3427;SDS011;1727;42.624;23.406;2023-04-15T11:23:27;2.60;;;1.80;;
3427;SDS011;1727;42.624;23.406;2023-04-15T11:25:56;5.67;;;1.90;;
3427;SDS011;1727;42.624;23.406;2023-04-15T11:28:24;2.80;;;1.93;;
3427;SDS011;1727;42.624;23.406;2023-04-15T11:30:52;5.30;;;1.90;;
3427;SDS011;1727;42.624;23.406;2023-04-15T11:33:19;2.20;;;2.00;;
3427;SDS011;1727;42.624;23.406;2023-04-15T11:35:48;4.00;;;2.07;;
3427;SDS011;1727;42.624;23.406;2023-04-15T11:38:15;2.47;;;2.27;;
3427;SDS011;1727;42.624;23.406;2023-04-15T11:40:42;4.00;;;1.87;;
3427;SDS011;1727;42.624;23.406;2023-04-15T11:43:10;3.97;;;1.90;;
3427;SDS011;1727;42.624;23.406;2023-04-15T11:45:43;1.70;;;1.43;;
3427;SDS011;1727;42.624;23.406;2023-04-15T11:48:15;1.73;;;1.47;;
3427;SDS011;1727;42.624;23.406;2023-04-15T11:50:43;1.77;;;1.67;;
3427;SDS011;1727;42.624;23.406;2023-04-15T11:53:12;2.10;;;1.80;;
3427;SDS011;1727;42.624;23.406;2023-04-15T11:55:42;2.37;;;1.70;;
3427;SDS011;1727;42.624;23.406;2023-04-15T11:58:11;2.70;;;2.23;;
3427;SDS011;1727;42.624;23.406;2023-04-15T12:00:40;2.93;;;1.67;;
3427;SDS011;1727;42.624;23.406;2023-04-15T12:03:22;2.00;;;1.80;;
3427;SDS011;1727;42.624;23.406;2023-04-15T12:06:03;3.43;;;1.93;;
3427;SDS011;1727;42.624;23.406;2023-04-15T12:08:48;1.57;;;1.37;;
3427;SDS011;1727;42.624;23.406;2023-04-15T12:11:27;2.30;;;1.77;;
3427;SDS011;1727;42.624;23.406;2023-04-15T12:13:55;3.60;;;1.63;;
3427;SDS011;1727;42.624;23.406;2023-04-15T12:16:24;1.50;;;1.40;;
3427;SDS011;1727;42.624;23.406;2023-04-15T12:18:53;1.70;;;1.27;;
3427;SDS011;1727;42.624;23.406;2023-04-15T12:21:21;1.63;;;1.40;;
3427;SDS011;1727;42.624;23.406;2023-04-15T12:23:50;2.27;;;1.30;;
3427;SDS011;1727;42.624;23.406;2023-04-15T12:26:24;4.00;;;2.00;;
3427;SDS011;1727;42.624;23.406;2023-04-15T12:28:52;2.13;;;1.30;;
3427;SDS011;1727;42.624;23.406;2023-04-15T12:31:20;1.67;;;1.50;;
3427;SDS011;1727;42.624;23.406;2023-04-15T12:47:15;2.00;;;1.80;;
3427;SDS011;1727;42.624;23.406;2023-04-15T12:49:42;1.93;;;1.50;;
3427;SDS011;1727;42.624;23.406;2023-04-15T12:52:09;2.03;;;1.60;;
3427;SDS011;1727;42.624;23.406;2023-04-15T12:54:36;2.70;;;1.30;;
3427;SDS011;1727;42.624;23.406;2023-04-15T12:57:03;1.50;;;1.40;;
3427;SDS011;1727;42.624;23.406;2023-04-15T12:59:30;3.40;;;1.83;;
3427;SDS011;1727;42.624;23.406;2023-04-15T13:01:57;1.40;;;1.30;;
3427;SDS011;1727;42.624;23.406;2023-04-15T13:04:26;2.43;;;1.43;;
3427;SDS011;1727;42.624;23.406;2023-04-15T13:06:54;2.27;;;1.43;;
3427;SDS011;1727;42.624;23.406;2023-04-15T13:09:21;1.67;;;1.27;;
3427;SDS011;1727;42.624;23.406;2023-04-15T13:11:48;1.90;;;1.30;;
3427;SDS011;1727;42.624;23.406;2023-04-15T13:14:16;2.60;;;1.47;;
3427;SDS011;1727;42.624;23.406;2023-04-15T13:16:43;1.30;;;1.20;;
3427;SDS011;1727;42.624;23.406;2023-04-15T13:19:10;2.13;;;1.77;;
3427;SDS011;1727;42.624;23.406;2023-04-15T13:21:38;2.20;;;1.40;;
3427;SDS011;1727;42.624;23.406;2023-04-15T13:24:06;1.70;;;1.10;;
3427;SDS011;1727;42.624;23.406;2023-04-15T13:26:33;2.17;;;1.60;;
3427;SDS011;1727;42.624;23.406;2023-04-15T13:29:00;1.40;;;1.30;;
3427;SDS011;1727;42.624;23.406;2023-04-15T13:31:27;1.63;;;1.40;;
3427;SDS011;1727;42.624;23.406;2023-04-15T13:33:54;2.67;;;1.23;;
3427;SDS011;1727;42.624;23.406;2023-04-15T13:36:21;1.40;;;1.23;;
3427;SDS011;1727;42.624;23.406;2023-04-15T13:38:50;2.73;;;1.50;;
3427;SDS011;1727;42.624;23.406;2023-04-15T13:41:16;3.53;;;1.37;;
3427;SDS011;1727;42.624;23.406;2023-04-15T13:43:44;2.10;;;1.40;;
3427;SDS011;1727;42.624;23.406;2023-04-15T13:46:11;6.17;;;1.40;;
3427;SDS011;1727;42.624;23.406;2023-04-15T13:48:38;3.10;;;1.83;;
3427;SDS011;1727;42.624;23.406;2023-04-15T13:51:05;2.07;;;1.30;;
3427;SDS011;1727;42.624;23.406;2023-04-15T13:53:32;2.33;;;1.50;;
3427;SDS011;1727;42.624;23.406;2023-04-15T13:56:01;2.30;;;1.37;;
3427;SDS011;1727;42.624;23.406;2023-04-15T13:58:28;2.20;;;1.47;;
3427;SDS011;1727;42.624;23.406;2023-04-15T14:00:55;2.30;;;1.70;;
3427;SDS011;1727;42.624;23.406;2023-04-15T14:03:22;3.00;;;1.97;;
3427;SDS011;1727;42.624;23.406;2023-04-15T14:05:49;3.03;;;2.53;;
3427;SDS011;1727;42.624;23.406;2023-04-15T14:08:19;1.77;;;1.40;;
3427;SDS011;1727;42.624;23.406;2023-04-15T14:10:46;2.77;;;2.30;;
3427;SDS011;1727;42.624;23.406;2023-04-15T14:13:15;10.53;;;5.60;;
3427;SDS011;1727;42.624;23.406;2023-04-15T14:15:43;3.40;;;2.80;;
3427;SDS011;1727;42.624;23.406;2023-04-15T14:18:10;8.13;;;1.80;;
3427;SDS011;1727;42.624;23.406;2023-04-15T14:20:37;1.87;;;1.40;;
3427;SDS011;1727;42.624;23.406;2023-04-15T14:23:04;4.17;;;2.90;;
3427;SDS011;1727;42.624;23.406;2023-04-15T14:25:31;5.47;;;4.43;;
3427;SDS011;1727;42.624;23.406;2023-04-15T14:27:57;4.97;;;4.10;;
3427;SDS011;1727;42.624;23.406;2023-04-15T14:30:26;2.43;;;2.23;;
3427;SDS011;1727;42.624;23.406;2023-04-15T14:32:53;8.33;;;7.33;;
3427;SDS011;1727;42.624;23.406;2023-04-15T14:35:19;18.40;;;14.90;;
3427;SDS011;1727;42.624;23.406;2023-04-15T14:37:48;3.60;;;3.30;;
3427;SDS011;1727;42.624;23.406;2023-04-15T14:40:15;3.53;;;3.23;;
3427;SDS011;1727;42.624;23.406;2023-04-15T14:42:42;2.63;;;2.43;;
3427;SDS011;1727;42.624;23.406;2023-04-15T14:45:09;2.40;;;2.17;;
3427;SDS011;1727;42.624;23.406;2023-04-15T14:47:37;24.03;;;18.80;;
3427;SDS011;1727;42.624;23.406;2023-04-15T14:50:05;7.70;;;4.67;;
3427;SDS011;1727;42.624;23.406;2023-04-15T14:52:33;11.77;;;8.37;;
3427;SDS011;1727;42.624;23.406;2023-04-15T14:55:03;5.77;;;2.63;;
3427;SDS011;1727;42.624;23.406;2023-04-15T14:57:30;3.30;;;3.00;;
3427;SDS011;1727;42.624;23.406;2023-04-15T14:59:57;2.97;;;2.20;;
3427;SDS011;1727;42.624;23.406;2023-04-15T15:02:24;3.50;;;2.40;;
3427;SDS011;1727;42.624;23.406;2023-04-15T15:04:52;4.37;;;2.30;;
3427;SDS011;1727;42.624;23.406;2023-04-15T15:07:19;2.13;;;1.50;;
3427;SDS011;1727;42.624;23.406;2023-04-15T15:09:46;1.53;;;1.40;;
3427;SDS011;1727;42.624;23.406;2023-04-15T15:12:13;1.47;;;1.37;;
3427;SDS011;1727;42.624;23.406;2023-04-15T15:14:40;1.80;;;1.60;;
3427;SDS011;1727;42.624;23.406;2023-04-15T15:17:06;2.87;;;1.60;;
3427;SDS011;1727;42.624;23.406;2023-04-15T15:19:33;5.97;;;1.63;;
3427;SDS011;1727;42.624;23.406;2023-04-15T15:22:01;2.00;;;1.80;;
3427;SDS011;1727;42.624;23.406;2023-04-15T15:24:29;3.90;;;1.90;;
3427;SDS011;1727;42.624;23.406;2023-04-15T15:26:55;5.83;;;1.80;;
3427;SDS011;1727;42.624;23.406;2023-04-15T15:29:22;1.80;;;1.60;;
3427;SDS011;1727;42.624;23.406;2023-04-15T15:31:49;3.97;;;2.10;;
3427;SDS011;1727;42.624;23.406;2023-04-15T15:34:16;3.43;;;2.10;;
3427;SDS011;1727;42.624;23.406;2023-04-15T15:36:55;5.30;;;2.00;;
3427;SDS011;1727;42.624;23.406;2023-04-15T15:39:23;3.00;;;1.90;;
3427;SDS011;1727;42.624;23.406;2023-04-15T15:41:50;1.97;;;1.40;;
3427;SDS011;1727;42.624;23.406;2023-04-15T15:44:17;3.47;;;1.80;;
3427;SDS011;1727;42.624;23.406;2023-04-15T15:46:44;2.80;;;1.77;;
3427;SDS011;1727;42.624;23.406;2023-04-15T15:49:11;7.00;;;1.70;;
3427;SDS011;1727;42.624;23.406;2023-04-15T15:51:38;2.43;;;1.60;;
3427;SDS011;1727;42.624;23.406;2023-04-15T15:54:05;5.77;;;3.60;;
3427;SDS011;1727;42.624;23.406;2023-04-15T15:56:33;3.53;;;2.50;;
3427;SDS011;1727;42.624;23.406;2023-04-15T15:59:02;10.10;;;6.20;;
3427;SDS011;1727;42.624;23.406;2023-04-15T16:01:29;13.03;;;6.43;;
3427;SDS011;1727;42.624;23.406;2023-04-15T16:03:56;6.47;;;4.07;;
3427;SDS011;1727;42.624;23.406;2023-04-15T16:06:23;4.50;;;3.37;;
3427;SDS011;1727;42.624;23.406;2023-04-15T16:08:51;5.37;;;3.30;;